Time;durP1;ratioP1;P1;durP2;ratioP2;P2;SDS_P1;SDS_P2;PMS_P1;PMS_P2;Temp;Humidity;BMP_temperature;BMP_pressure;BME280_temperature;BME280_humidity;BME280_pressure;Samples;Min_cycle;Max_cycle;Signal;HPM_P1;HPM_P2
2022/11/05 00:16:42;;;;;;;1.17;0.93;;;;;;;15.76;49.07;94715.94;5099755;28;20472;-66
2022/11/05 00:16:56;;;;;;;2.53;2.13;;;;;;;16.28;48.05;94690.91;5100781;28;20443;-65
2022/11/05 00:19:23;;;;;;;7.00;1.87;;;;;;;15.86;48.67;94684.03;5098164;28;20432;-66
2022/11/05 00:27:20;;;;;;;1.70;1.37;;;;;;;16.22;47.96;94677.00;5103229;28;20504;-64
2022/11/05 00:29:47;;;;;;;3.17;2.33;;;;;;;16.01;47.58;94670.53;5108547;28;20965;-66
2022/11/05 00:32:14;;;;;;;0.83;0.83;;;;;;;15.87;49.18;94691.69;5104830;28;21025;-66
2022/11/05 00:34:41;;;;;;;0.73;0.73;;;;;;;16.10;48.33;94668.75;5106592;28;20527;-63
2022/11/05 00:37:08;;;;;;;2.70;2.23;;;;;;;16.19;47.53;94693.44;5112711;27;20441;-66
2022/11/05 00:39:35;;;;;;;1.87;1.73;;;;;;;15.85;48.84;94685.09;5112548;28;20911;-63
2022/11/05 00:45:02;;;;;;;1.03;1.03;;;;;;;16.33;47.40;94688.16;5091928;28;20451;-65
2022/11/05 00:50:18;;;;;;;1.80;1.70;;;;;;;15.80;48.71;94691.25;5091995;28;20452;-64
2022/11/05 00:52:58;;;;;;;1.90;1.60;;;;;;;15.61;49.63;94681.84;5098796;28;20432;-64
2022/11/05 00:55:28;;;;;;;1.27;1.13;;;;;;;15.95;48.92;94666.41;5097639;28;20532;-64
2022/11/05 00:57:56;;;;;;;2.47;2.27;;;;;;;16.10;48.53;94658.19;5105096;28;20437;-64
2022/11/05 01:00:25;;;;;;;2.03;1.90;;;;;;;16.17;47.98;94658.56;5105301;28;20433;-64
2022/11/05 01:02:52;;;;;;;1.00;1.00;;;;;;;16.33;47.43;94670.41;5097651;28;20437;-64
2022/11/05 01:05:19;;;;;;;1.83;1.70;;;;;;;16.43;47.65;94666.75;5112416;28;20448;-64
2022/11/05 01:07:46;;;;;;;2.37;1.50;;;;;;;15.92;48.87;94667.00;5111882;28;20468;-63
2022/11/05 01:10:13;;;;;;;2.53;2.33;;;;;;;15.98;48.30;94658.69;5101329;28;20435;-64
2022/11/05 01:12:40;;;;;;;1.33;1.23;;;;;;;16.04;48.46;94654.06;5106445;28;20432;-63
2022/11/05 01:15:07;;;;;;;1.57;1.50;;;;;;;16.06;47.98;94646.63;5100358;28;20464;-65
2022/11/05 01:17:34;;;;;;;1.30;1.27;;;;;;;16.16;47.71;94644.59;5096130;28;20445;-62
2022/11/05 01:20:01;;;;;;;1.53;1.37;;;;;;;16.24;47.56;94653.66;5098657;28;20444;-66
2022/11/05 01:22:28;;;;;;;1.87;1.73;;;;;;;15.84;48.99;94651.81;5098550;28;20531;-64
2022/11/05 01:24:55;;;;;;;2.40;2.13;;;;;;;15.95;48.91;94639.97;5105576;28;20467;-66
2022/11/05 01:27:22;;;;;;;0.83;0.83;;;;;;;15.99;48.90;94635.69;5102133;28;20826;-66
2022/11/05 01:29:49;;;;;;;0.70;0.70;;;;;;;15.85;49.07;94642.84;5093182;28;20514;-65
2022/11/05 01:32:16;;;;;;;1.17;1.07;;;;;;;16.05;48.33;94639.81;5101058;28;20554;-64
2022/11/05 01:34:42;;;;;;;1.03;1.03;;;;;;;14.77;52.01;94636.22;5111409;28;20452;-65
2022/11/05 01:37:09;;;;;;;3.33;2.33;;;;;;;14.68;53.10;94621.34;5111606;28;20521;-64
2022/11/05 01:39:36;;;;;;;0.93;0.93;;;;;;;15.41;50.05;94618.84;5096920;28;20453;-64
2022/11/05 01:42:11;;;;;;;1.87;1.70;;;;;;;15.61;49.87;94618.47;5111225;27;21081;-65
2022/11/05 01:44:57;;;;;;;4.80;3.73;;;;;;;15.73;49.73;94610.84;5111114;28;20978;-62
2022/11/05 01:47:35;;;;;;;0.70;0.70;;;;;;;15.93;49.04;94621.78;5111033;28;20472;-65
2022/11/05 01:50:23;;;;;;;0.63;0.63;;;;;;;16.03;48.79;94612.88;5110222;28;20440;-64
2022/11/05 01:52:56;;;;;;;1.83;1.73;;;;;;;15.95;49.09;94613.56;5090914;28;20552;-64
2022/11/05 01:55:29;;;;;;;0.20;0.20;;;;;;;15.63;49.53;94616.31;5090968;28;20480;-63
2022/11/05 01:57:58;;;;;;;2.03;1.83;;;;;;;15.09;51.12;94598.53;5111178;28;20441;-63
2022/11/05 02:00:26;;;;;;;1.63;1.30;;;;;;;15.36;50.68;94592.50;5097162;28;20576;-64
2022/11/05 02:02:53;;;;;;;1.00;0.93;;;;;;;15.84;49.52;94593.69;5096861;28;20440;-64
2022/11/05 02:05:21;;;;;;;1.73;1.63;;;;;;;15.89;49.31;94598.91;5098440;28;21640;-64
2022/11/05 02:07:49;;;;;;;4.40;2.10;;;;;;;15.77;49.35;94580.91;5104496;28;21066;-63
2022/11/05 02:10:19;;;;;;;1.30;1.20;;;;;;;16.02;48.47;94587.53;5101266;28;20974;-64
2022/11/05 02:12:49;;;;;;;0.57;0.57;;;;;;;16.12;48.56;94587.31;5107526;28;20447;-63
2022/11/05 02:15:42;;;;;;;2.10;1.97;;;;;;;15.98;48.43;94597.91;5100439;28;20448;-64
2022/11/05 02:18:26;;;;;;;0.73;0.73;;;;;;;15.52;50.09;94593.81;5086888;28;21171;-65
2022/11/05 02:21:11;;;;;;;0.80;0.80;;;;;;;15.57;49.81;94597.13;5104087;28;20583;-64
2022/11/05 02:24:06;;;;;;;1.20;1.20;;;;;;;15.41;50.00;94592.44;5110628;28;20562;-61
2022/11/05 02:26:59;;;;;;;0.30;0.30;;;;;;;15.22;50.77;94585.34;5090967;28;20434;-64
2022/11/05 02:29:32;;;;;;;0.80;0.80;;;;;;;15.54;49.91;94591.66;5089734;28;20481;-62
2022/11/05 02:32:16;;;;;;;3.13;2.73;;;;;;;15.27;50.93;94607.44;5090148;28;20440;-61
2022/11/05 02:34:52;;;;;;;1.53;1.43;;;;;;;15.54;50.05;94596.94;5091974;28;20441;-63
2022/11/05 02:37:31;;;;;;;1.47;1.17;;;;;;;15.54;50.27;94607.50;5109813;28;20991;-62
2022/11/05 02:40:12;;;;;;;1.37;1.27;;;;;;;15.54;50.11;94594.31;5109829;28;20440;-65
2022/11/05 02:43:01;;;;;;;1.13;0.83;;;;;;;15.61;50.13;94599.97;5109948;28;20451;-63
2022/11/05 02:45:48;;;;;;;4.57;3.17;;;;;;;15.48;50.09;94598.09;5103522;28;20490;-63
2022/11/05 02:48:34;;;;;;;1.23;1.23;;;;;;;15.62;49.97;94604.19;5089612;28;20500;-62
2022/11/05 02:51:31;;;;;;;3.30;1.43;;;;;;;15.61;50.28;94594.69;5089485;28;20540;-65
2022/11/05 02:54:11;;;;;;;2.47;2.27;;;;;;;15.73;49.79;94600.28;5105993;28;20475;-62
2022/11/05 02:56:42;;;;;;;1.17;1.07;;;;;;;15.80;49.26;94608.59;5099418;28;20463;-63
2022/11/05 02:59:09;;;;;;;0.93;0.93;;;;;;;15.81;49.47;94610.94;5107162;28;20449;-63
2022/11/05 03:01:38;;;;;;;1.63;1.53;;;;;;;15.35;50.20;94599.63;5100617;28;20441;-66
2022/11/05 03:04:09;;;;;;;2.00;1.90;;;;;;;15.59;49.98;94610.84;5105563;28;20456;-63
2022/11/05 03:06:58;;;;;;;1.77;1.43;;;;;;;15.14;50.97;94611.63;5109896;28;20903;-64
2022/11/05 03:09:24;;;;;;;1.73;1.03;;;;;;;15.43;50.37;94600.84;5109596;28;20490;-64
2022/11/05 03:12:35;;;;;;;2.70;2.37;;;;;;;15.43;50.35;94595.56;5109624;28;21155;-65
2022/11/05 03:15:03;;;;;;;0.50;0.50;;;;;;;15.03;51.61;94608.38;5097114;28;20444;-65
2022/11/05 03:17:36;;;;;;;0.60;0.60;;;;;;;15.32;50.97;94615.28;5103948;28;20527;-65
2022/11/05 03:20:18;;;;;;;1.27;1.23;;;;;;;15.30;50.65;94602.38;5102063;28;20449;-65
2022/11/05 03:23:14;;;;;;;1.23;1.13;;;;;;;15.03;51.32;94607.59;5090568;28;20448;-66
2022/11/05 03:26:17;;;;;;;1.30;1.20;;;;;;;15.34;51.23;94603.34;5101492;28;20448;-66
2022/11/05 03:28:53;;;;;;;4.33;2.20;;;;;;;15.34;50.70;94606.00;5094382;28;20521;-63
2022/11/05 03:31:23;;;;;;;0.87;0.87;;;;;;;15.07;51.77;94614.63;5092722;28;20933;-63
2022/11/05 03:33:53;;;;;;;1.87;1.77;;;;;;;15.40;51.00;94617.25;5088949;28;20437;-64
2022/11/05 03:36:34;;;;;;;1.10;1.00;;;;;;;15.39;50.63;94616.47;5103069;28;20954;-62
2022/11/05 03:39:04;;;;;;;3.80;1.87;;;;;;;15.45;50.37;94620.63;5089116;28;20478;-64
2022/11/05 03:41:33;;;;;;;1.20;1.07;;;;;;;15.44;50.46;94619.03;5102745;28;20436;-64
2022/11/05 03:44:04;;;;;;;1.17;0.90;;;;;;;15.04;51.36;94638.97;5089036;28;20425;-65
2022/11/05 03:46:37;;;;;;;1.73;1.63;;;;;;;15.41;50.79;94635.47;5089926;28;20530;-64
2022/11/05 03:49:08;;;;;;;1.17;1.17;;;;;;;15.52;50.52;94639.50;5101251;28;20561;-62
2022/11/05 03:51:47;;;;;;;1.43;1.37;;;;;;;15.19;50.85;94638.72;5092716;28;20433;-63
2022/11/05 03:54:14;;;;;;;1.33;1.27;;;;;;;15.29;50.90;94636.97;5097657;28;20452;-67
2022/11/05 03:56:59;;;;;;;1.07;1.03;;;;;;;15.83;49.57;94642.34;5102155;28;20444;-65
2022/11/05 03:59:28;;;;;;;1.97;1.87;;;;;;;15.54;50.05;94652.41;5098871;28;20439;-65
2022/11/05 04:01:56;;;;;;;2.07;1.97;;;;;;;15.50;50.75;94648.78;5113797;28;20436;-64
2022/11/05 04:04:23;;;;;;;1.37;1.37;;;;;;;15.25;50.71;94631.50;5113615;28;20438;-64
2022/11/05 04:15:07;;;;;;;1.87;1.77;;;;;;;15.18;51.34;94652.97;5101700;28;20440;-64
2022/11/05 04:17:34;;;;;;;2.73;2.53;;;;;;;15.12;51.40;94643.59;5097481;28;20484;-63
2022/11/05 04:25:32;;;;;;;1.17;1.07;;;;;;;15.07;50.81;94653.44;5112631;28;20910;-64
2022/11/05 04:27:59;;;;;;;0.30;0.30;;;;;;;15.26;50.59;94664.72;5112757;28;20449;-62
2022/11/05 04:30:26;;;;;;;6.27;2.80;;;;;;;15.30;50.61;94664.94;5112499;28;20440;-64
2022/11/05 04:32:58;;;;;;;3.40;2.73;;;;;;;15.41;50.44;94671.63;5098298;28;20441;-64
2022/11/05 04:35:45;;;;;;;0.60;0.60;;;;;;;15.23;50.51;94671.38;5112912;28;20527;-64
2022/11/05 04:38:15;;;;;;;3.50;1.80;;;;;;;15.36;50.45;94671.69;5113050;28;20466;-66
2022/11/05 04:40:42;;;;;;;1.70;1.37;;;;;;;15.41;50.19;94676.91;5112442;28;20517;-65
2022/11/05 04:43:14;;;;;;;2.43;1.60;;;;;;;15.35;50.89;94678.03;5096484;28;20440;-63
2022/11/05 04:45:41;;;;;;;3.10;2.30;;;;;;;15.38;50.40;94685.41;5100878;28;20436;-64
2022/11/05 04:48:09;;;;;;;4.77;3.80;;;;;;;15.55;49.81;94683.00;5111850;28;21002;-64
2022/11/05 04:50:36;;;;;;;2.20;1.97;;;;;;;15.49;49.66;94684.19;5104817;28;20437;-64
2022/11/05 04:53:03;;;;;;;1.17;1.07;;;;;;;15.47;50.61;94686.31;5101064;28;20450;-64
2022/11/05 04:55:30;;;;;;;3.90;2.43;;;;;;;15.44;50.37;94674.47;5097560;28;20513;-63
2022/11/05 04:57:56;;;;;;;1.03;1.03;;;;;;;15.62;50.09;94683.44;5112219;28;20517;-64
2022/11/05 05:00:24;;;;;;;6.70;2.10;;;;;;;15.37;50.74;94675.91;5098241;28;20476;-63
2022/11/05 05:02:51;;;;;;;0.83;0.83;;;;;;;15.49;50.42;94668.34;5111680;28;20464;-63
2022/11/05 05:05:20;;;;;;;2.43;1.90;;;;;;;15.42;49.73;94683.78;5112193;28;20492;-63
2022/11/05 05:07:46;;;;;;;3.27;2.40;;;;;;;15.23;50.32;94668.75;5111385;28;20501;-63
2022/11/05 05:10:13;;;;;;;1.67;1.57;;;;;;;15.29;50.28;94676.56;5100703;28;20537;-62
2022/11/05 05:12:40;;;;;;;0.50;0.50;;;;;;;15.22;50.22;94674.28;5091403;28;20437;-63
2022/11/05 05:15:07;;;;;;;1.63;1.53;;;;;;;15.24;50.61;94666.88;5091531;28;20463;-61
2022/11/05 05:17:34;;;;;;;1.90;1.60;;;;;;;15.46;49.77;94685.53;5091026;28;20961;-65
2022/11/05 05:22:53;;;;;;;1.50;1.40;;;;;;;15.34;50.21;94702.88;5107331;28;20891;-67
2022/11/05 05:25:21;;;;;;;2.87;2.63;;;;;;;15.29;50.46;94710.91;5102643;28;20478;-66
2022/11/05 05:27:48;;;;;;;15.30;3.03;;;;;;;15.32;50.23;94705.81;5105343;28;20432;-63
2022/11/05 05:30:15;;;;;;;5.57;2.60;;;;;;;15.40;50.54;94713.06;5098340;28;20467;-62
2022/11/05 05:32:42;;;;;;;2.90;2.63;;;;;;;15.40;50.23;94713.06;5097512;28;20468;-64
2022/11/05 05:35:09;;;;;;;1.37;1.30;;;;;;;15.14;52.13;94717.19;5105729;28;20437;-63
2022/11/05 05:37:36;;;;;;;3.63;3.03;;;;;;;15.42;51.22;94712.81;5091309;28;20574;-64
2022/11/05 05:40:03;;;;;;;1.43;1.40;;;;;;;15.56;50.32;94716.28;5104897;28;20449;-65
2022/11/05 05:42:30;;;;;;;3.67;2.70;;;;;;;15.20;51.11;94719.47;5101266;28;20531;-62
2022/11/05 05:44:56;;;;;;;3.73;2.93;;;;;;;15.51;50.60;94724.28;5094273;28;20477;-63
2022/11/05 05:47:23;;;;;;;2.13;1.90;;;;;;;15.68;50.09;94719.22;5099572;28;20529;-65
2022/11/05 05:49:51;;;;;;;1.53;1.07;;;;;;;15.63;50.61;94721.97;5096464;28;20530;-64
2022/11/05 05:52:18;;;;;;;2.27;1.60;;;;;;;15.41;51.36;94722.59;5090556;28;21608;-63
2022/11/05 05:54:45;;;;;;;2.97;2.77;;;;;;;15.56;50.86;94726.84;5090884;28;20445;-65
2022/11/05 05:57:12;;;;;;;1.73;1.63;;;;;;;15.72;50.00;94728.16;5104482;28;20440;-63
2022/11/05 05:59:38;;;;;;;2.70;1.80;;;;;;;15.61;49.91;94724.09;5097937;28;20444;-64
2022/11/05 06:02:06;;;;;;;1.80;1.30;;;;;;;15.82;49.99;94720.06;5111045;27;20436;-65
2022/11/05 06:04:34;;;;;;;1.63;1.57;;;;;;;15.96;50.29;94736.69;5104980;28;20614;-63
2022/11/05 06:07:00;;;;;;;3.13;2.07;;;;;;;15.50;52.82;94741.19;5102542;28;20501;-63
2022/11/05 06:09:27;;;;;;;3.93;2.27;;;;;;;15.59;53.02;94731.53;5102512;28;21043;-63
2022/11/05 06:11:54;;;;;;;3.07;2.77;;;;;;;15.77;51.70;94734.13;5088574;28;20915;-64
2022/11/05 06:14:21;;;;;;;5.83;3.50;;;;;;;16.20;50.23;94726.72;5090045;28;20456;-63
2022/11/05 06:16:48;;;;;;;1.83;1.73;;;;;;;15.94;50.87;94725.63;5101039;28;20535;-65
2022/11/05 06:19:15;;;;;;;21.50;1.47;;;;;;;15.89;51.39;94710.66;5101957;27;20464;-67
2022/11/05 06:21:42;;;;;;;0.77;0.77;;;;;;;15.92;51.39;94725.94;5098993;28;20442;-67
2022/11/05 06:24:09;;;;;;;3.07;1.70;;;;;;;15.91;50.94;94724.34;5094942;28;20436;-65
2022/11/05 06:26:41;;;;;;;16.97;1.60;;;;;;;16.28;50.18;94728.69;5109904;27;20436;-66
2022/11/05 06:29:09;;;;;;;1.33;1.27;;;;;;;16.38;49.87;94728.50;5109437;28;20479;-64
2022/11/05 06:31:36;;;;;;;2.27;2.07;;;;;;;16.10;50.94;94737.47;5106718;27;20437;-64
2022/11/05 06:34:03;;;;;;;0.93;0.93;;;;;;;16.31;50.54;94738.69;5095183;28;20448;-65
2022/11/05 06:36:30;;;;;;;0.80;0.80;;;;;;;16.56;49.25;94724.19;5110380;28;20607;-66
2022/11/05 06:38:56;;;;;;;3.10;2.10;;;;;;;16.62;49.54;94726.44;5106541;28;20799;-65
2022/11/05 06:41:23;;;;;;;4.47;3.30;;;;;;;16.64;49.33;94726.91;5093340;28;20498;-63
2022/11/05 06:43:50;;;;;;;3.60;2.50;;;;;;;16.12;50.00;94724.75;5097269;28;20539;-65
2022/11/05 06:46:17;;;;;;;4.03;3.30;;;;;;;16.47;49.70;94720.63;5109431;28;20455;-64
2022/11/05 06:48:43;;;;;;;1.10;0.97;;;;;;;16.69;48.66;94724.16;5100175;27;20439;-64
2022/11/05 06:51:10;;;;;;;1.27;1.17;;;;;;;16.90;48.74;94712.06;5106943;27;20436;-65
2022/11/05 06:53:37;;;;;;;1.67;1.57;;;;;;;16.94;48.14;94715.69;5097427;28;20608;-65
2022/11/05 06:56:05;;;;;;;5.63;2.40;;;;;;;16.78;48.33;94695.94;5109732;28;20440;-65
2022/11/05 06:58:33;;;;;;;2.10;1.97;;;;;;;17.05;48.35;94710.94;5105280;28;20535;-64
2022/11/05 07:01:04;;;;;;;11.83;2.80;;;;;;;16.98;48.96;94706.06;5101768;27;20471;-66
2022/11/05 07:03:31;;;;;;;2.03;1.70;;;;;;;17.36;47.44;94711.00;5109861;28;20467;-65
2022/11/05 07:06:03;;;;;;;2.23;2.00;;;;;;;17.32;47.59;94700.22;5098709;28;20430;-65
2022/11/05 07:08:31;;;;;;;1.97;1.87;;;;;;;17.62;47.65;94698.72;5095515;28;20480;-67
2022/11/05 07:10:58;;;;;;;2.07;1.87;;;;;;;17.49;47.30;94694.28;5108760;28;20487;-68
2022/11/05 07:13:26;;;;;;;3.40;2.27;;;;;;;17.81;46.79;94697.41;5109900;28;20535;-65
2022/11/05 07:15:53;;;;;;;2.13;1.43;;;;;;;17.68;46.64;94677.09;5091320;28;20456;-68
2022/11/05 07:18:19;;;;;;;1.67;1.57;;;;;;;17.05;48.25;94693.19;5109216;28;20442;-69
2022/11/05 07:20:47;;;;;;;3.03;2.10;;;;;;;17.52;47.31;94691.03;5108724;28;20508;-62
2022/11/05 07:23:15;;;;;;;1.17;1.07;;;;;;;17.80;47.46;94695.09;5109740;28;20442;-62
2022/11/05 07:25:42;;;;;;;2.63;2.00;;;;;;;17.36;47.93;94692.44;5090030;28;20916;-66
2022/11/05 07:28:09;;;;;;;1.67;1.57;;;;;;;17.76;46.99;94686.97;5090725;28;20730;-69
2022/11/05 07:30:36;;;;;;;1.00;0.90;;;;;;;17.72;47.60;94685.22;5097432;28;20519;-69
2022/11/05 07:33:03;;;;;;;2.17;1.93;;;;;;;18.18;46.28;94680.25;5095736;28;20472;-65
2022/11/05 07:35:30;;;;;;;1.63;1.53;;;;;;;17.93;47.36;94686.25;5108334;28;20954;-63
2022/11/05 07:37:57;;;;;;;1.67;1.57;;;;;;;18.27;46.07;94686.38;5109346;28;20445;-65
2022/11/05 07:40:26;;;;;;;7.27;2.70;;;;;;;18.56;45.79;94680.53;5103720;28;20468;-63
2022/11/05 07:42:59;;;;;;;2.40;2.17;;;;;;;19.10;44.45;94670.09;5103869;28;20444;-64
2022/11/05 07:45:28;;;;;;;2.13;1.33;;;;;;;19.02;44.71;94667.44;5104950;28;20524;-66
2022/11/05 07:47:57;;;;;;;0.73;0.73;;;;;;;18.76;44.71;94666.66;5092607;28;20469;-66
2022/11/05 07:50:26;;;;;;;1.10;1.07;;;;;;;19.19;43.89;94668.25;5087778;28;21094;-67
2022/11/05 07:52:59;;;;;;;6.93;2.83;;;;;;;18.59;44.10;94651.53;5102872;28;20471;-67
2022/11/05 07:55:27;;;;;;;0.43;0.43;;;;;;;18.68;44.29;94668.25;5108430;28;20448;-68
2022/11/05 07:57:54;;;;;;;1.23;1.13;;;;;;;18.89;44.06;94669.19;5101850;28;20461;-64
2022/11/05 08:00:23;;;;;;;1.67;1.57;;;;;;;19.34;43.33;94668.88;5101610;28;20501;-60
2022/11/05 08:02:59;;;;;;;8.37;6.27;;;;;;;18.99;43.55;94668.09;5102121;28;20970;-62
2022/11/05 08:05:35;;;;;;;3.53;2.97;;;;;;;19.75;42.29;94653.13;5108837;28;20460;-63
2022/11/05 08:08:03;;;;;;;4.03;2.27;;;;;;;19.21;43.97;94649.34;5103321;28;20943;-64
2022/11/05 08:10:30;;;;;;;1.60;1.33;;;;;;;20.05;42.09;94665.38;5095813;28;20487;-62
2022/11/05 08:12:57;;;;;;;1.70;1.60;;;;;;;20.61;40.94;94651.63;5102306;28;20451;-63
2022/11/05 08:15:24;;;;;;;7.90;3.87;;;;;;;20.52;41.80;94656.25;5088129;28;20536;-63
2022/11/05 08:18:04;;;;;;;2.43;2.23;;;;;;;20.56;41.59;94651.84;5105273;28;20432;-64
2022/11/05 08:20:31;;;;;;;8.93;3.70;;;;;;;20.35;41.82;94645.69;5108181;28;20531;-64
2022/11/05 08:22:58;;;;;;;2.47;1.73;;;;;;;20.41;41.55;94649.72;5102057;28;20802;-62
2022/11/05 08:25:25;;;;;;;4.10;3.50;;;;;;;21.14;40.55;94638.41;5100276;28;20450;-62
2022/11/05 08:28:06;;;;;;;4.10;3.37;;;;;;;21.17;40.00;94644.19;5101927;28;20493;-65
2022/11/05 08:30:34;;;;;;;1.23;1.20;;;;;;;20.63;41.22;94635.34;5108190;28;20545;-69
2022/11/05 08:33:03;;;;;;;2.20;1.40;;;;;;;21.18;40.46;94639.28;5098367;28;20183;-63
2022/11/05 08:35:30;;;;;;;0.80;0.80;;;;;;;21.28;40.62;94642.66;5089139;28;20438;-63
2022/11/05 08:37:59;;;;;;;1.00;1.00;;;;;;;21.50;39.87;94636.94;5098981;27;20538;-64
2022/11/05 08:40:26;;;;;;;1.03;1.00;;;;;;;21.23;40.58;94635.66;5089459;28;20866;-66
2022/11/05 08:42:56;;;;;;;1.90;1.63;;;;;;;21.46;39.42;94630.75;5105630;28;20186;-66
2022/11/05 08:45:24;;;;;;;1.60;1.50;;;;;;;22.04;37.95;94625.84;5098063;28;20522;-67
2022/11/05 08:47:57;;;;;;;16.73;7.83;;;;;;;22.39;38.29;94618.16;5110210;27;20471;-62
2022/11/05 08:50:24;;;;;;;3.23;2.90;;;;;;;22.14;38.10;94617.41;5092854;28;21007;-69
2022/11/05 08:52:51;;;;;;;1.77;1.60;;;;;;;22.58;37.66;94618.38;5094888;27;20264;-65
2022/11/05 08:55:18;;;;;;;1.90;1.80;;;;;;;22.68;37.19;94623.25;5090918;28;20272;-67
2022/11/05 08:57:45;;;;;;;1.67;1.53;;;;;;;22.50;37.33;94613.91;5091977;27;20227;-65
2022/11/05 09:00:13;;;;;;;1.73;1.40;;;;;;;22.89;36.79;94607.06;5090296;28;20586;-65
2022/11/05 09:02:40;;;;;;;3.10;1.57;;;;;;;23.04;36.07;94615.16;5097111;27;20201;-65
2022/11/05 09:05:07;;;;;;;3.43;1.80;;;;;;;23.10;36.22;94610.34;5090783;28;20186;-65
2022/11/05 09:07:34;;;;;;;1.43;1.30;;;;;;;22.57;36.80;94614.13;5095944;27;20216;-65
2022/11/05 09:10:01;;;;;;;1.70;1.60;;;;;;;21.70;36.79;94609.44;5112663;27;20222;-65
2022/11/05 09:12:28;;;;;;;7.00;6.33;;;;;;;22.49;36.83;94601.69;5099237;27;20390;-63
2022/11/05 09:14:54;;;;;;;12.87;9.40;;;;;;;22.38;36.06;94603.25;5097522;28;20207;-63
2022/11/05 09:17:21;;;;;;;9.93;3.63;;;;;;;22.26;35.90;94610.50;5111111;27;20619;-64
2022/11/05 09:19:48;;;;;;;3.27;2.23;;;;;;;22.12;36.76;94610.81;5111635;28;20274;-63
2022/11/05 09:22:15;;;;;;;8.90;4.03;;;;;;;22.07;35.88;94613.72;5099570;28;20624;-65
2022/11/05 09:24:42;;;;;;;4.80;1.80;;;;;;;22.03;36.77;94607.50;5111178;28;20680;-66
2022/11/05 09:27:12;;;;;;;1.00;0.87;;;;;;;22.32;36.07;94604.59;5103958;28;20704;-64
2022/11/05 09:29:39;;;;;;;3.20;2.17;;;;;;;21.93;35.63;94607.94;5110051;27;20628;-64
2022/11/05 09:32:07;;;;;;;1.67;1.57;;;;;;;21.78;35.71;94606.69;5103826;28;20200;-66
2022/11/05 09:34:34;;;;;;;1.57;1.37;;;;;;;21.93;35.73;94602.63;5110094;28;20808;-64
2022/11/05 09:37:01;;;;;;;9.80;1.57;;;;;;;21.84;35.24;94593.94;5097872;27;20221;-65
2022/11/05 09:39:28;;;;;;;1.37;1.27;;;;;;;21.75;35.90;94590.56;5097665;28;20199;-65
2022/11/05 09:42:01;;;;;;;3.90;1.03;;;;;;;21.72;36.03;94591.22;5110551;27;20511;-66
2022/11/05 09:44:52;;;;;;;1.37;1.23;;;;;;;21.97;35.50;94584.81;5098215;28;20441;-65
2022/11/05 09:47:26;;;;;;;2.60;2.17;;;;;;;22.06;35.79;94591.59;5092211;28;20961;-65
2022/11/05 09:49:56;;;;;;;15.57;2.03;;;;;;;21.89;35.04;94596.38;5110440;28;20214;-63
2022/11/05 09:52:26;;;;;;;3.97;1.67;;;;;;;22.34;34.60;94589.00;5097946;27;21258;-63
2022/11/05 09:54:54;;;;;;;1.90;1.33;;;;;;;21.97;34.51;94587.47;5120998;27;20198;-63
2022/11/05 09:57:27;;;;;;;1.30;1.20;;;;;;;22.37;34.64;94580.31;5108040;28;20456;-63
2022/11/05 09:59:58;;;;;;;1.33;1.03;;;;;;;22.10;35.45;94586.38;5100231;28;20449;-64
2022/11/05 10:02:34;;;;;;;3.50;2.00;;;;;;;22.35;35.48;94587.91;5108244;28;20201;-63
2022/11/05 10:05:06;;;;;;;2.30;1.17;;;;;;;21.90;34.83;94597.94;5099968;28;20436;-65
2022/11/05 10:07:47;;;;;;;1.70;1.60;;;;;;;21.88;34.86;94584.13;5110495;28;20431;-64
2022/11/05 10:10:24;;;;;;;0.93;0.70;;;;;;;22.07;35.37;94587.03;5110376;28;20488;-64
2022/11/05 10:12:58;;;;;;;3.30;1.77;;;;;;;22.01;35.74;94580.38;5112070;27;20436;-63
2022/11/05 10:15:33;;;;;;;1.83;1.57;;;;;;;22.25;35.56;94577.69;5099004;28;20286;-62
2022/11/05 10:18:31;;;;;;;6.93;4.63;;;;;;;22.59;35.21;94561.19;5108116;28;20277;-64
2022/11/05 10:20:58;;;;;;;2.53;2.33;;;;;;;22.41;35.16;94565.19;5106003;28;20690;-63
2022/11/05 10:23:26;;;;;;;3.57;2.00;;;;;;;22.28;35.30;94566.31;5100426;27;20814;-64
2022/11/05 10:26:04;;;;;;;0.80;0.80;;;;;;;22.71;34.47;94563.03;5095459;28;20825;-64
2022/11/05 10:28:32;;;;;;;1.43;0.97;;;;;;;22.70;33.50;94559.59;5100521;28;20190;-65
2022/11/05 10:31:05;;;;;;;2.00;1.90;;;;;;;22.99;33.90;94555.81;5096596;28;20218;-64
2022/11/05 10:33:41;;;;;;;0.83;0.83;;;;;;;23.11;33.30;94555.75;5100286;28;20199;-65
2022/11/05 10:36:13;;;;;;;0.80;0.77;;;;;;;22.33;33.46;94562.66;5109886;28;20203;-64
2022/11/05 10:38:41;;;;;;;1.23;1.17;;;;;;;22.42;33.48;94560.63;5094484;28;20195;-64
2022/11/05 10:41:36;;;;;;;3.03;1.13;;;;;;;22.47;33.73;94563.06;5089476;28;20286;-63
2022/11/05 10:44:31;;;;;;;0.87;0.87;;;;;;;22.36;33.31;94564.66;5094300;27;20841;-65
2022/11/05 10:47:00;;;;;;;0.50;0.50;;;;;;;22.46;33.38;94556.19;5107881;28;20238;-64
2022/11/05 10:49:39;;;;;;;1.13;1.07;;;;;;;22.93;33.23;94555.28;5109411;28;20497;-64
2022/11/05 10:52:28;;;;;;;0.93;0.93;;;;;;;22.27;33.57;94559.44;5091725;27;21007;-65
2022/11/05 10:55:00;;;;;;;1.53;1.43;;;;;;;22.89;32.96;94549.06;5109396;28;20202;-65
2022/11/05 10:57:36;;;;;;;2.37;2.27;;;;;;;22.71;33.51;94552.34;5091938;28;20199;-65
2022/11/05 11:00:24;;;;;;;5.60;5.07;;;;;;;22.86;33.12;94549.72;5098409;28;20202;-64
2022/11/05 11:02:54;;;;;;;6.57;2.97;;;;;;;22.87;33.24;94547.84;5108934;28;20243;-65
2022/11/05 11:05:28;;;;;;;2.30;0.83;;;;;;;23.19;32.78;94546.03;5097024;28;20203;-62
2022/11/05 11:08:10;;;;;;;0.53;0.53;;;;;;;22.91;33.00;94540.69;5094218;27;20678;-69
2022/11/05 11:11:06;;;;;;;2.27;1.37;;;;;;;23.09;32.34;94536.59;5095359;28;20272;-60
2022/11/05 11:14:12;;;;;;;1.70;1.60;;;;;;;22.97;33.70;94529.41;5095010;28;20260;-61
2022/11/05 11:16:49;;;;;;;0.53;0.53;;;;;;;22.95;33.13;94531.69;5094571;28;20679;-61
2022/11/05 11:19:26;;;;;;;1.97;0.80;;;;;;;23.10;32.83;94528.25;5108453;28;20548;-73
2022/11/05 11:22:19;;;;;;;8.03;1.37;;;;;;;22.43;32.78;94541.63;5109004;28;20680;-67
2022/11/05 11:24:49;;;;;;;7.43;2.40;;;;;;;22.26;32.87;94536.56;5122901;27;20716;-66
2022/11/05 11:27:28;;;;;;;0.73;0.73;;;;;;;22.52;33.47;94522.78;5098438;28;20256;-61
2022/11/05 11:30:00;;;;;;;0.97;0.97;;;;;;;22.42;33.45;94524.06;5093340;28;20436;-59
2022/11/05 11:32:38;;;;;;;2.23;1.27;;;;;;;22.67;33.78;94538.91;5108545;28;20205;-62
2022/11/05 11:35:17;;;;;;;1.57;1.47;;;;;;;22.69;33.82;94527.88;5108724;28;20285;-67
2022/11/05 11:37:45;;;;;;;0.70;0.70;;;;;;;22.79;33.02;94533.50;5108898;28;20197;-71
2022/11/05 11:40:29;;;;;;;0.93;0.83;;;;;;;22.18;33.04;94529.44;5108822;28;20257;-71
2022/11/05 11:43:01;;;;;;;1.83;1.03;;;;;;;22.15;33.72;94522.13;5091805;28;20179;-65
2022/11/05 11:45:43;;;;;;;3.47;2.17;;;;;;;21.90;33.89;94517.91;5095060;28;20206;-66
2022/11/05 11:48:33;;;;;;;2.80;2.60;;;;;;;22.50;33.66;94531.13;5098246;28;20226;-70
2022/11/05 11:51:16;;;;;;;7.27;2.10;;;;;;;22.40;33.79;94528.94;5095340;28;20222;-73
2022/11/05 11:53:43;;;;;;;0.73;0.73;;;;;;;22.35;33.64;94515.84;5097137;28;20461;-70
2022/11/05 11:56:20;;;;;;;4.43;4.00;;;;;;;22.38;33.19;94512.50;5097825;28;20226;-71
2022/11/05 11:58:53;;;;;;;6.13;4.20;;;;;;;22.64;33.03;94515.56;5099300;28;20489;-67
2022/11/05 12:01:38;;;;;;;1.50;1.40;;;;;;;22.94;32.12;94519.41;5096851;28;20203;-72
2022/11/05 12:04:20;;;;;;;1.37;1.27;;;;;;;22.73;33.94;94518.84;5101757;28;20444;-72
2022/11/05 12:07:17;;;;;;;2.20;2.10;;;;;;;22.52;33.43;94522.78;5098493;28;20932;-76
2022/11/05 12:10:09;;;;;;;1.07;0.87;;;;;;;22.51;33.45;94521.22;5102776;28;20222;-74
2022/11/05 12:12:47;;;;;;;0.87;0.87;;;;;;;22.34;33.14;94514.28;5107061;28;20440;-74
2022/11/05 12:15:26;;;;;;;0.67;0.67;;;;;;;22.42;33.31;94513.38;5104425;28;20252;-72
2022/11/05 12:18:14;;;;;;;1.37;1.20;;;;;;;22.47;33.48;94510.47;5094039;28;20197;-77
2022/11/05 12:20:50;;;;;;;1.20;0.67;;;;;;;22.61;33.91;94505.53;5112566;28;20203;-68
2022/11/05 12:23:53;;;;;;;3.60;3.30;;;;;;;22.79;34.09;94501.44;5112054;28;20853;-69
2022/11/05 12:26:38;;;;;;;25.27;9.67;;;;;;;22.56;34.73;94505.78;5097046;28;20203;-70
2022/11/05 12:29:31;;;;;;;3.70;3.40;;;;;;;22.32;34.28;94503.16;5100967;27;20195;-69
2022/11/05 12:32:23;;;;;;;1.97;1.83;;;;;;;22.37;33.32;94502.16;5102619;28;20207;-70
2022/11/05 12:35:20;;;;;;;1.23;1.13;;;;;;;22.59;34.11;94505.09;5102972;27;20222;-77
2022/11/05 12:38:18;;;;;;;2.33;1.80;;;;;;;22.39;34.33;94503.34;5103416;28;20443;-73
2022/11/05 12:41:14;;;;;;;1.20;1.10;;;;;;;22.62;34.70;94511.66;5102714;28;20286;-68